createdAt,value
2022-09-28T00:00:12.244Z,11.4
2022-09-28T00:02:28.643Z,11.1
2022-09-28T00:04:44.839Z,11.4
2022-09-28T00:07:01.096Z,11.8
2022-09-28T00:09:17.391Z,11.3
2022-09-28T00:11:33.590Z,11.4
2022-09-28T00:13:49.357Z,11.5
2022-09-28T00:16:06.238Z,11.5
2022-09-28T00:18:22.475Z,11.1
2022-09-28T00:20:38.676Z,11.4
2022-09-28T00:22:53.953Z,11.3
2022-09-28T00:25:09.874Z,7.7
2022-09-28T00:27:25.251Z,11
2022-09-28T00:29:41.246Z,9.1
2022-09-28T00:31:56.707Z,10.4
2022-09-28T00:34:12.570Z,9
2022-09-28T00:36:29.122Z,11
2022-09-28T00:38:44.396Z,11.1
2022-09-28T00:41:00.670Z,9.7
2022-09-28T00:43:16.819Z,11
2022-09-28T00:45:33.469Z,10.9
2022-09-28T00:47:49.514Z,11.1
2022-09-28T00:50:04.953Z,11.3
2022-09-28T00:52:20.774Z,8.4
2022-09-28T00:54:37.301Z,11.2
2022-09-28T00:56:53.666Z,10.7
2022-09-28T00:59:10.171Z,11.3
2022-09-28T01:01:26.478Z,10.8
2022-09-28T01:03:42.624Z,11.5
2022-09-28T01:05:58.829Z,11.1
2022-09-28T01:08:15.149Z,11
2022-09-28T01:10:31.300Z,11.3
2022-09-28T01:12:47.625Z,10.9
2022-09-28T01:15:03.830Z,10.8
2022-09-28T01:17:20.118Z,10.6
2022-09-28T01:19:36.421Z,11
2022-09-28T01:21:52.676Z,10.5
2022-09-28T01:24:09.187Z,10.9
2022-09-28T01:26:25.576Z,10.8
2022-09-28T01:28:41.537Z,10.4
2022-09-28T01:30:57.852Z,10.7
2022-09-28T01:33:14.224Z,10.9
2022-09-28T01:35:29.402Z,11.1
2022-09-28T01:37:44.302Z,8
2022-09-28T01:39:59.249Z,8.9
2022-09-28T01:42:15.020Z,8.3
2022-09-28T01:44:31.743Z,10.8
2022-09-28T01:46:47.243Z,10.9
2022-09-28T01:49:03.098Z,7.4
2022-09-28T01:51:18.321Z,10.9
2022-09-28T01:53:34.406Z,8.5
2022-09-28T01:55:50.803Z,10.4
2022-09-28T01:58:07.243Z,10.7
2022-09-28T02:00:22.599Z,10.5
2022-09-28T02:02:38.541Z,7.1
2022-09-28T02:04:54.959Z,10.3
2022-09-28T02:07:10.406Z,10.6
2022-09-28T02:09:28.499Z,7.8
2022-09-28T02:11:42.827Z,9.9
2022-09-28T02:13:59.199Z,10.8
2022-09-28T02:16:14.666Z,10.8
2022-09-28T02:18:29.421Z,7.9
2022-09-28T02:20:45.342Z,8.9
2022-09-28T02:23:01.850Z,11
2022-09-28T02:25:18.266Z,10.3
2022-09-28T02:27:34.661Z,10.5
2022-09-28T02:29:50.974Z,10.8
2022-09-28T02:32:07.582Z,11
2022-09-28T02:34:23.746Z,10.3
2022-09-28T02:36:39.906Z,10.6
2022-09-28T02:38:56.275Z,10.6
2022-09-28T02:41:11.632Z,10.5
2022-09-28T02:43:27.643Z,7.8
2022-09-28T02:45:43.079Z,10.6
2022-09-28T02:47:58.766Z,9.1
2022-09-28T02:50:33.575Z,10
2022-09-28T02:52:50.032Z,10.4
2022-09-28T02:55:06.405Z,10.5
2022-09-28T02:57:23.024Z,10.3
2022-09-28T02:59:39.147Z,10.1
2022-09-28T03:01:55.447Z,10.7
2022-09-28T03:04:11.748Z,10.9
2022-09-28T03:06:27.994Z,10.7
2022-09-28T03:08:43.285Z,10.6
2022-09-28T03:10:58.182Z,7.9
2022-09-28T03:13:14.003Z,8.6
2022-09-28T03:15:30.503Z,10.2
2022-09-28T03:17:47.039Z,10.4
2022-09-28T03:20:03.398Z,10.4
2022-09-28T03:22:19.816Z,10.8
2022-09-28T03:24:47.928Z,10.8
2022-09-28T03:27:04.303Z,11
2022-09-28T03:29:20.599Z,10.6
2022-09-28T03:31:37.020Z,11.2
2022-09-28T03:33:53.267Z,10.6
2022-09-28T03:36:09.494Z,10.9
2022-09-28T03:38:25.919Z,11.1
2022-09-28T03:40:42.200Z,10.9
2022-09-28T03:42:58.713Z,10.8
2022-09-28T03:45:14.769Z,10.8
2022-09-28T03:47:31.255Z,10.8
2022-09-28T03:49:46.588Z,11.2
2022-09-28T03:52:02.333Z,9.1
2022-09-28T03:54:18.726Z,10.9
2022-09-28T03:56:35.137Z,11.1
2022-09-28T03:58:51.564Z,11.3
2022-09-28T04:01:07.047Z,11
2022-09-28T04:03:22.883Z,9
2022-09-28T04:05:39.346Z,11
2022-09-28T04:07:55.739Z,11.5
2022-09-28T04:10:11.097Z,11.2
2022-09-28T04:12:35.795Z,9.3
2022-09-28T04:14:52.188Z,10.9
2022-09-28T04:17:08.534Z,10.9
2022-09-28T04:19:25.085Z,11.2
2022-09-28T04:21:41.284Z,11
2022-09-28T04:23:57.555Z,11.4
2022-09-28T04:26:13.896Z,11.7
2022-09-28T04:28:30.685Z,11.6
2022-09-28T04:30:45.631Z,10.6
2022-09-28T04:33:01.602Z,9.3
2022-09-28T04:35:18.072Z,10.3
2022-09-28T04:37:34.537Z,11.5
2022-09-28T04:39:59.805Z,11.5
2022-09-28T04:42:16.051Z,11.1
2022-09-28T04:44:31.476Z,11.3
2022-09-28T04:46:47.437Z,8.9
2022-09-28T04:49:03.902Z,11.2
2022-09-28T04:51:19.353Z,11.6
2022-09-28T04:53:35.174Z,10.4
2022-09-28T04:55:51.733Z,11.8
2022-09-28T04:58:08.301Z,11.5
2022-09-28T05:00:24.521Z,11.8
2022-09-28T05:02:40.956Z,11.7
2022-09-28T05:04:57.275Z,11.7
2022-09-28T05:07:13.636Z,11.6
2022-09-28T05:09:30.072Z,12.9
2022-09-28T05:11:45.432Z,12.3
2022-09-28T05:14:01.479Z,9.7
2022-09-28T05:16:17.960Z,10.9
2022-09-28T05:18:33.707Z,12.4
2022-09-28T05:20:50.675Z,12.4
2022-09-28T05:23:05.527Z,12
2022-09-28T05:25:22.066Z,9.9
2022-09-28T05:27:38.502Z,13.1
2022-09-28T05:29:55.001Z,12.9
2022-09-28T05:32:11.371Z,13.4
2022-09-28T05:34:27.865Z,13.6
2022-09-28T05:36:44.081Z,14
2022-09-28T05:39:00.391Z,13.9
2022-09-28T05:41:16.069Z,14.5
2022-09-28T05:43:32.895Z,15.1
2022-09-28T05:45:52.991Z,14.6
2022-09-28T05:48:05.348Z,14.9
2022-09-28T05:50:21.513Z,15.3
2022-09-28T05:52:37.890Z,15.6
2022-09-28T05:57:28.787Z,15.3
2022-09-28T05:59:44.913Z,15
2022-09-28T06:02:01.107Z,15.4
2022-09-28T06:04:17.340Z,16.3
2022-09-28T06:06:33.406Z,16.8
2022-09-28T06:08:49.555Z,16.8
2022-09-28T06:11:05.646Z,17.5
2022-09-28T06:13:21.679Z,16.8
2022-09-28T06:15:37.722Z,17.6
2022-09-28T06:17:53.904Z,16.6
2022-09-28T06:20:09.907Z,16.8
2022-09-28T06:26:58.006Z,15.6
2022-09-28T06:29:18.664Z,16.4
2022-09-28T06:31:30.068Z,15.9
2022-09-28T06:33:46.070Z,16.8
2022-09-28T06:36:02.183Z,18.3
2022-09-28T06:38:18.107Z,17.8
2022-09-28T06:40:34.187Z,19.3
2022-09-28T06:42:49.411Z,20.9
2022-09-28T06:47:21.282Z,20
2022-09-28T06:49:37.267Z,18.8
2022-09-28T06:51:53.188Z,18.1
2022-09-28T06:54:09.054Z,17.8
2022-09-28T06:56:27.297Z,17.6
2022-09-28T06:58:40.831Z,18.2
2022-09-28T07:00:56.802Z,17.6
2022-09-28T07:03:12.658Z,17.8
2022-09-28T07:05:28.535Z,18.3
2022-09-28T07:07:44.321Z,19.7
2022-09-28T07:10:05.011Z,20.4
2022-09-28T07:12:20.630Z,20.1
2022-09-28T07:14:58.537Z,19.8
2022-09-28T07:17:29.641Z,19.7
2022-09-28T07:19:47.313Z,17.2
2022-09-28T07:22:05.332Z,16.9
2022-09-28T07:24:18.486Z,19.1
2022-09-28T07:26:33.713Z,18.1
2022-09-28T07:28:50.379Z,21.9
2022-09-28T07:31:06.445Z,23.6
2022-09-28T07:33:22.397Z,24.6
2022-09-28T07:35:37.608Z,23.5
2022-09-28T07:37:52.461Z,20.9
2022-09-28T07:40:07.361Z,19.6
2022-09-28T07:42:23.181Z,18.9
2022-09-28T07:44:38.542Z,21.4
2022-09-28T07:46:53.354Z,18.9
2022-09-28T07:51:24.230Z,16.1
2022-09-28T07:53:40.412Z,18.6
2022-09-28T07:55:56.475Z,17.8
2022-09-28T07:58:12.447Z,17.6
2022-09-28T08:00:32.006Z,17.8
2022-09-28T08:02:43.556Z,16.9
2022-09-28T08:04:58.300Z,15.8
2022-09-28T08:07:14.248Z,15.9
2022-09-28T08:09:30.331Z,17.6
2022-09-28T08:11:46.272Z,16.8
2022-09-28T08:14:02.252Z,16.6
2022-09-28T08:16:18.212Z,17.3
2022-09-28T08:18:33.994Z,16.9
2022-09-28T08:23:04.961Z,14.1
2022-09-28T08:25:21.007Z,17.6
2022-09-28T08:27:36.267Z,17.3
2022-09-28T08:29:51.112Z,16.9
2022-09-28T08:32:05.855Z,15.5
2022-09-28T08:34:21.860Z,18
2022-09-28T08:36:38.424Z,27.1
2022-09-28T08:38:54.330Z,28.4
2022-09-28T08:41:10.375Z,26.4
2022-09-28T08:43:25.529Z,22.5
2022-09-28T08:45:41.278Z,25.9
2022-09-28T08:47:57.071Z,28.9
2022-09-28T08:50:28.355Z,33.4
2022-09-28T08:52:43.155Z,33.9
2022-09-28T08:54:58.081Z,34.8
2022-09-28T08:57:13.081Z,34.5
2022-09-28T08:59:27.687Z,33.9
2022-09-28T09:01:43.682Z,32.4
2022-09-28T09:03:58.853Z,36.4
2022-09-28T09:06:17.699Z,35.9
2022-09-28T09:08:29.524Z,36.4
2022-09-28T09:10:44.809Z,39.5
2022-09-28T09:12:59.651Z,38.9
2022-09-28T09:15:15.344Z,40
2022-09-28T09:17:30.560Z,44.4
2022-09-28T09:19:46.735Z,45.1
2022-09-28T09:22:02.096Z,44.5
2022-09-28T09:24:17.876Z,45.9
2022-09-28T09:26:32.953Z,43.6
2022-09-28T09:28:47.869Z,44.9
2022-09-28T09:31:02.827Z,42.2
2022-09-28T09:33:17.517Z,42.3
2022-09-28T09:35:32.386Z,39.6
2022-09-28T09:37:47.244Z,40.9
2022-09-28T09:40:02.106Z,42.6
2022-09-28T09:42:17.003Z,43.2
2022-09-28T09:44:31.776Z,43.8
2022-09-28T09:46:46.840Z,43.4
2022-09-28T09:49:01.577Z,42.1
2022-09-28T09:51:16.385Z,43.3
2022-09-28T09:53:33.647Z,41.6
2022-09-28T09:55:46.135Z,42.5
2022-09-28T09:58:01.004Z,42.9
2022-09-28T10:00:15.755Z,42.8
2022-09-28T10:02:30.627Z,39.5
2022-09-28T10:04:45.446Z,38.8
2022-09-28T10:07:00.304Z,40.6
2022-09-28T10:09:15.233Z,38.9
2022-09-28T10:11:30.109Z,38.3
2022-09-28T10:13:44.934Z,38.3
2022-09-28T10:15:59.843Z,37.9
2022-09-28T10:18:14.572Z,35.6
2022-09-28T10:20:29.536Z,35.3
2022-09-28T10:22:44.584Z,30.6
2022-09-28T10:24:59.249Z,28.5
2022-09-28T10:27:14.127Z,27.3
2022-09-28T10:29:29.129Z,26.2
2022-09-28T10:31:44.728Z,25.4
2022-09-28T10:34:00.157Z,29.4
2022-09-28T10:36:14.915Z,23.5
2022-09-28T10:38:29.894Z,21.8
2022-09-28T10:40:44.841Z,22.9
2022-09-28T10:42:59.939Z,22.8
2022-09-28T10:45:14.886Z,21.9
2022-09-28T10:47:29.662Z,20.8
2022-09-28T10:49:47.176Z,21.6
2022-09-28T10:51:59.528Z,21.6
2022-09-28T10:54:14.814Z,21.6
2022-09-28T10:56:29.547Z,21.3
2022-09-28T10:58:44.719Z,21.8
2022-09-28T11:00:59.602Z,20.6
2022-09-28T11:03:14.520Z,21.1
2022-09-28T11:05:29.376Z,20.3
2022-09-28T11:07:44.280Z,20.6
2022-09-28T11:09:59.379Z,21.2
2022-09-28T11:12:14.151Z,21.5
2022-09-28T11:14:29.372Z,21.6
2022-09-28T11:16:44.187Z,22.4
2022-09-28T11:18:59.388Z,22.5
2022-09-28T11:21:14.121Z,23.8
2022-09-28T11:23:29.169Z,23.2
2022-09-28T11:25:46.137Z,22.7
2022-09-28T11:27:59.203Z,23.6
2022-09-28T11:30:14.036Z,23.3
2022-09-28T11:32:29.142Z,22.4
2022-09-28T11:34:59.812Z,21.3
2022-09-28T11:37:05.299Z,20.7
2022-09-28T11:39:20.257Z,20.6
2022-09-28T11:41:34.976Z,21.5
2022-09-28T11:43:49.926Z,21.8
2022-09-28T11:46:04.903Z,21.4
2022-09-28T11:48:19.615Z,21.1
2022-09-28T11:52:49.250Z,21.4
2022-09-28T11:55:04.261Z,21
2022-09-28T11:57:19.117Z,20.6
2022-09-28T11:59:33.971Z,20.8
2022-09-28T12:01:48.850Z,20.4
2022-09-28T12:04:03.621Z,20
2022-09-28T12:06:18.489Z,20.6
2022-09-28T12:08:33.417Z,21.4
2022-09-28T12:10:48.257Z,21.6
2022-09-28T12:13:03.059Z,21.3
2022-09-28T12:15:18.076Z,22
2022-09-28T12:18:23.924Z,22.4
2022-09-28T12:20:38.850Z,22.3
2022-09-28T12:22:53.566Z,22.4
2022-09-28T12:25:08.410Z,22.6
2022-09-28T12:27:23.327Z,22.6
2022-09-28T12:29:38.219Z,22.8
2022-09-28T12:31:53.053Z,22.6
2022-09-28T12:34:07.788Z,22.7
2022-09-28T12:36:22.629Z,22.6
2022-09-28T12:38:37.512Z,22.1
2022-09-28T12:41:16.411Z,21.9
2022-09-28T12:43:31.315Z,20.8
2022-09-28T12:46:07.004Z,20.5
2022-09-28T12:48:12.715Z,20.1
2022-09-28T12:51:50.959Z,20.1
2022-09-28T12:54:05.891Z,20.4
2022-09-28T12:56:21.471Z,20.2
2022-09-28T12:58:35.591Z,20.6
2022-09-28T13:00:50.439Z,20
2022-09-28T13:03:04.749Z,20.4
2022-09-28T13:05:20.152Z,20.6
2022-09-28T13:07:34.979Z,19.6
2022-09-28T13:09:49.851Z,19.6
2022-09-28T13:12:04.856Z,19.5
2022-09-28T13:14:19.571Z,20
2022-09-28T13:16:34.552Z,19.4
2022-09-28T13:18:49.257Z,19.2
2022-09-28T13:21:04.072Z,18.9
2022-09-28T13:23:19.036Z,19
2022-09-28T13:25:49.174Z,18.8
2022-09-28T13:28:04.015Z,18.9
2022-09-28T13:30:18.968Z,18.3
2022-09-28T13:32:34.074Z,18.8
2022-09-28T13:34:48.666Z,19
2022-09-28T13:37:03.515Z,18.3
2022-09-28T13:41:33.321Z,18.9
2022-09-28T13:43:48.965Z,18.4
2022-09-28T13:46:05.045Z,22.9
2022-09-28T13:48:20.755Z,23.2
2022-09-28T13:50:36.048Z,22.9
2022-09-28T13:52:51.249Z,24.3
2022-09-28T13:55:06.035Z,18.3
2022-09-28T13:57:21.418Z,19.3
2022-09-28T13:59:37.248Z,21.8
2022-09-28T14:01:52.473Z,21.4
2022-09-28T14:04:07.743Z,18.4
2022-09-28T14:06:23.350Z,21.4
2022-09-28T14:08:38.418Z,21.5
2022-09-28T14:10:53.785Z,18.4
2022-09-28T14:13:09.348Z,21.8
2022-09-28T14:15:24.894Z,21.7
2022-09-28T14:17:40.224Z,21.3
2022-09-28T14:22:11.046Z,21.4
2022-09-28T14:24:26.082Z,21.3
2022-09-28T14:26:40.798Z,21.4
2022-09-28T14:28:56.806Z,21.7
2022-09-28T14:31:11.809Z,21.4
2022-09-28T14:33:27.105Z,21.4
2022-09-28T14:37:57.563Z,21.3
2022-09-28T14:40:12.143Z,18
2022-09-28T14:42:27.061Z,18.4
2022-09-28T14:46:57.897Z,20.9
2022-09-28T14:49:12.630Z,17.5
2022-09-28T14:51:28.528Z,17.9
2022-09-28T14:53:44.208Z,21.6
2022-09-28T14:55:59.883Z,21.9
2022-09-28T14:58:15.533Z,20.9
2022-09-28T15:00:30.668Z,20.8
2022-09-28T15:05:01.129Z,21.1
2022-09-28T15:07:17.407Z,20
2022-09-28T15:09:32.478Z,19.9
2022-09-28T15:11:47.377Z,17.9
2022-09-28T15:14:02.982Z,17.8
2022-09-28T15:16:18.246Z,20
2022-09-28T15:18:33.585Z,18.2
2022-09-28T15:20:49.232Z,19.8
2022-09-28T15:23:04.160Z,17.8
2022-09-28T15:25:19.787Z,18
2022-09-28T15:27:35.118Z,19.4
2022-09-28T15:29:50.799Z,17.4
2022-09-28T15:34:21.685Z,17.8
2022-09-28T15:36:37.089Z,19.1
2022-09-28T15:38:52.120Z,17.4
2022-09-28T15:41:06.943Z,17.5
2022-09-28T15:43:21.603Z,17.1
2022-09-28T15:45:36.422Z,16.1
2022-09-28T15:47:52.430Z,16
2022-09-28T15:50:08.582Z,18.9
2022-09-28T15:52:24.653Z,19
2022-09-28T15:56:56.546Z,18.9
2022-09-28T16:01:26.651Z,17.6
2022-09-28T16:03:43.225Z,18.8
2022-09-28T16:05:59.115Z,18.5
2022-09-28T16:08:14.946Z,18.9
2022-09-28T16:10:30.719Z,19
2022-09-28T16:12:45.867Z,18.4
2022-09-28T16:15:01.555Z,16.5
2022-09-28T16:17:17.411Z,17.7
2022-09-28T16:19:32.691Z,18.4
2022-09-28T16:21:47.439Z,17.2
2022-09-28T16:24:03.719Z,16.9
2022-09-28T16:26:19.428Z,17.1
2022-09-28T16:28:35.339Z,17.9
2022-09-28T16:30:50.670Z,18
2022-09-28T16:33:06.247Z,16.1
2022-09-28T16:35:22.154Z,18.1
2022-09-28T16:37:38.085Z,18.1
2022-09-28T16:39:53.994Z,18.2
2022-09-28T16:42:09.759Z,18.2
2022-09-28T16:44:25.748Z,18.2
2022-09-28T16:46:41.617Z,17.9
2022-09-28T16:48:57.051Z,18.2
2022-09-28T16:51:12.609Z,15.8
2022-09-28T16:53:28.595Z,18.6
2022-09-28T16:55:56.456Z,18.1
2022-09-28T16:58:11.702Z,18.3
2022-09-28T17:00:28.080Z,18.3
2022-09-28T17:02:49.711Z,18.4
2022-09-28T17:05:05.302Z,18.6
2022-09-28T17:07:21.030Z,18.3
2022-09-28T17:09:36.992Z,18.4
2022-09-28T17:12:05.923Z,17.8
2022-09-28T17:14:20.972Z,17.9
2022-09-28T17:17:02.582Z,15.8
2022-09-28T17:19:09.379Z,18.2
2022-09-28T17:21:25.173Z,17.3
2022-09-28T17:23:41.249Z,18.2
2022-09-28T17:25:57.278Z,18
2022-09-28T17:28:13.242Z,17.9
2022-09-28T17:30:29.361Z,17.8
2022-09-28T17:32:45.224Z,18
2022-09-28T17:35:22.858Z,18.3
2022-09-28T17:37:27.020Z,17.4
2022-09-28T17:39:42.854Z,17.8
2022-09-28T17:41:58.722Z,17.4
2022-09-28T17:44:14.683Z,17.6
2022-09-28T17:46:30.404Z,17.6
2022-09-28T17:48:46.322Z,17.8
2022-09-28T17:51:02.072Z,17.6
2022-09-28T17:53:18.033Z,17.4
2022-09-28T17:55:33.934Z,17.5
2022-09-28T17:57:49.581Z,17.3
2022-09-28T18:00:05.561Z,17.3
2022-09-28T18:02:21.422Z,17.4
2022-09-28T18:04:52.931Z,17.3
2022-09-28T18:07:09.254Z,17.4
2022-09-28T18:09:24.296Z,17.3
2022-09-28T18:11:40.128Z,16.3
2022-09-28T18:13:56.103Z,17.6
2022-09-28T18:16:12.412Z,18.3
2022-09-28T18:18:28.162Z,18
2022-09-28T18:20:43.297Z,17.5
2022-09-28T18:22:59.231Z,16.5
2022-09-28T18:25:15.142Z,17.9
2022-09-28T18:27:31.222Z,17.8
2022-09-28T18:29:48.243Z,17.6
2022-09-28T18:32:02.520Z,17.8
2022-09-28T18:34:18.321Z,15.4
2022-09-28T18:36:33.503Z,17.6
2022-09-28T18:38:49.316Z,16.1
2022-09-28T18:41:05.451Z,18.1
2022-09-28T18:43:21.483Z,18.3
2022-09-28T18:45:36.943Z,17.6
2022-09-28T18:47:52.564Z,15.3
2022-09-28T18:50:08.611Z,17.7
2022-09-28T18:52:23.855Z,17.8
2022-09-28T18:54:39.696Z,15.4
2022-09-28T18:56:55.997Z,17.6
2022-09-28T18:59:12.402Z,17.4
2022-09-28T19:01:34.016Z,17.3
2022-09-28T19:03:49.780Z,17.7
2022-09-28T19:08:23.186Z,14.7
2022-09-28T19:10:36.835Z,17.3
2022-09-28T19:12:52.960Z,17.4
2022-09-28T19:15:08.924Z,17.2
2022-09-28T19:17:24.817Z,16.8
2022-09-28T19:19:40.843Z,17.4
2022-09-28T19:21:56.692Z,16.4
2022-09-28T19:24:12.525Z,16.7
2022-09-28T19:26:28.748Z,16.8
2022-09-28T19:28:44.558Z,16.7
2022-09-28T19:31:03.672Z,16.5
2022-09-28T19:33:16.350Z,16.8
2022-09-28T19:35:31.758Z,16.7
2022-09-28T19:37:47.355Z,15.7
2022-09-28T19:40:03.481Z,16.2
2022-09-28T19:42:19.341Z,17.4
2022-09-28T19:44:34.847Z,16.8
2022-09-28T19:46:49.536Z,14.6
2022-09-28T19:49:05.472Z,14.9
2022-09-28T19:51:21.762Z,16.1
2022-09-28T19:53:45.669Z,16.8
2022-09-28T19:56:01.624Z,16.6
2022-09-28T19:58:17.711Z,16.7
2022-09-28T20:00:33.603Z,16.6
2022-09-28T20:02:49.607Z,16.6
2022-09-28T20:07:21.498Z,16.5
2022-09-28T20:09:37.375Z,16.4
2022-09-28T20:11:52.679Z,16.8
2022-09-28T20:14:09.658Z,14.7
2022-09-28T20:16:24.682Z,16.8
2022-09-28T20:18:40.501Z,16.1
2022-09-28T20:20:56.431Z,16.8
2022-09-28T20:23:11.692Z,16.4
2022-09-28T20:25:27.437Z,13.8
2022-09-28T20:27:43.596Z,16.9
2022-09-28T20:29:59.030Z,16.6
2022-09-28T20:32:14.912Z,16.6
2022-09-28T20:34:30.607Z,14.8
2022-09-28T20:36:48.043Z,16.9
2022-09-28T20:39:04.066Z,16.3
2022-09-28T20:41:19.978Z,16.1
2022-09-28T20:43:34.654Z,16.6
2022-09-28T20:45:51.069Z,13.6
2022-09-28T20:48:07.213Z,16.2
2022-09-28T20:50:23.644Z,16.6
2022-09-28T20:52:38.401Z,16.1
2022-09-28T20:54:54.187Z,14.5
2022-09-28T20:57:10.358Z,16.3
2022-09-28T20:59:26.523Z,16.1
2022-09-28T21:01:42.592Z,15.7
2022-09-28T21:03:58.417Z,16.1
2022-09-28T21:06:13.376Z,15.8
2022-09-28T21:08:29.292Z,13.5
2022-09-28T21:10:45.293Z,16
2022-09-28T21:13:01.514Z,15.8
2022-09-28T21:15:17.417Z,15.8
2022-09-28T21:17:33.385Z,15.7
2022-09-28T21:19:49.270Z,15.7
2022-09-28T21:22:05.150Z,15.8
2022-09-28T21:24:21.170Z,15.7
2022-09-28T21:26:37.130Z,15.7
2022-09-28T21:28:53.076Z,15.3
2022-09-28T21:31:09.345Z,15.6
2022-09-28T21:33:25.115Z,14.7
2022-09-28T21:35:40.224Z,15
2022-09-28T21:37:55.863Z,13.1
2022-09-28T21:40:12.074Z,15.8
2022-09-28T21:42:28.168Z,15.4
2022-09-28T21:44:43.445Z,14.7
2022-09-28T21:46:59.273Z,13.5
2022-09-28T21:49:15.254Z,14.9
2022-09-28T21:51:31.357Z,15.6
2022-09-28T21:53:47.309Z,15.3
2022-09-28T21:56:03.287Z,15.1
2022-09-28T21:58:19.304Z,15.1
2022-09-28T22:00:35.232Z,14.6
2022-09-28T22:02:51.190Z,14.8
2022-09-28T22:05:07.034Z,15.1
2022-09-28T22:07:23.193Z,14.9
2022-09-28T22:09:39.201Z,14.9
2022-09-28T22:11:55.380Z,14.5
2022-09-28T22:14:11.360Z,15
2022-09-28T22:16:27.484Z,14.7
2022-09-28T22:18:43.518Z,14.5
2022-09-28T22:20:59.649Z,15
2022-09-28T22:23:15.464Z,14.8
2022-09-28T22:25:31.440Z,15
2022-09-28T22:27:47.605Z,14.4
2022-09-28T22:30:03.509Z,14.6
2022-09-28T22:32:19.958Z,14.7
2022-09-28T22:34:35.554Z,14.7
2022-09-28T22:36:51.844Z,14.7
2022-09-28T22:39:07.797Z,14.4
2022-09-28T22:41:23.283Z,14.4
2022-09-28T22:43:39.000Z,12.4
2022-09-28T22:45:58.742Z,14.4
2022-09-28T22:48:11.444Z,14.9
2022-09-28T22:50:27.399Z,14.3
2022-09-28T22:52:43.778Z,14.5
2022-09-28T22:54:59.652Z,14.4
2022-09-28T22:57:15.228Z,14.5
2022-09-28T22:59:29.982Z,12
2022-09-28T23:01:46.199Z,12.4
2022-09-28T23:04:02.303Z,14.4
2022-09-28T23:06:18.597Z,14.8
2022-09-28T23:08:34.607Z,14.9
2022-09-28T23:10:50.690Z,14.6
2022-09-28T23:13:06.843Z,14.6
2022-09-28T23:15:22.698Z,14.7
2022-09-28T23:17:39.251Z,14.5
2022-09-28T23:20:07.087Z,14.6
2022-09-28T23:22:23.678Z,14.8
2022-09-28T23:24:38.851Z,14.5
2022-09-28T23:26:54.753Z,13.1
2022-09-28T23:29:10.712Z,14.8
2022-09-28T23:31:26.917Z,14.3
2022-09-28T23:33:42.144Z,14.3
2022-09-28T23:35:57.887Z,12.3
2022-09-28T23:38:14.051Z,14.4
2022-09-28T23:40:30.112Z,14.3
2022-09-28T23:42:46.312Z,14.2
2022-09-28T23:45:02.053Z,14.3
2022-09-28T23:47:18.073Z,14.4
2022-09-28T23:49:34.085Z,14.5
2022-09-28T23:51:49.931Z,14.1
2022-09-28T23:54:06.013Z,14.3
2022-09-28T23:56:21.241Z,14
2022-09-28T23:58:36.031Z,11.6
